Time;durP1;ratioP1;P1;durP2;ratioP2;P2;SDS_P1;SDS_P2;PMS_P1;PMS_P2;Temp;Humidity;BMP_temperature;BMP_pressure;BME280_temperature;BME280_humidity;BME280_pressure;Samples;Min_cycle;Max_cycle;Signal;HPM_P1;HPM_P2
2022/11/22 00:01:37;;;;;;;29.93;15.97;;;2.20;99.90;;;;;;4144662;28;20671;-64
2022/11/22 00:03:38;;;;;;;23.43;14.13;;;2.20;99.90;;;;;;4146490;28;20751;-66
2022/11/22 00:05:39;;;;;;;24.20;13.77;;;2.10;99.90;;;;;;4144964;28;20247;-67
2022/11/22 00:07:40;;;;;;;26.10;14.73;;;2.10;99.90;;;;;;4144661;28;20829;-66
2022/11/22 00:09:41;;;;;;;30.93;16.67;;;2.10;99.90;;;;;;4144808;28;20341;-66
2022/11/22 00:11:42;;;;;;;35.90;19.20;;;2.10;99.90;;;;;;4146242;28;20267;-65
2022/11/22 00:13:43;;;;;;;34.47;17.30;;;2.00;99.90;;;;;;4144860;28;20373;-65
2022/11/22 00:15:45;;;;;;;39.23;20.33;;;2.00;99.90;;;;;;4128232;28;20272;-68
2022/11/22 00:17:46;;;;;;;40.83;20.33;;;2.00;99.90;;;;;;4144418;28;20279;-70
2022/11/22 00:19:47;;;;;;;37.10;20.07;;;2.00;99.90;;;;;;4145475;28;20841;-67
2022/11/22 00:21:48;;;;;;;39.60;21.20;;;2.00;99.90;;;;;;4145706;28;20255;-65
2022/11/22 00:23:55;;;;;;;28.83;17.03;;;2.00;99.90;;;;;;4144175;28;20291;-65
2022/11/22 00:25:56;;;;;;;26.50;14.03;;;2.10;99.90;;;;;;4145315;28;20604;-73
2022/11/22 00:27:57;;;;;;;19.77;11.93;;;2.10;99.90;;;;;;4144762;28;20306;-71
2022/11/22 00:29:58;;;;;;;22.53;12.13;;;2.10;99.90;;;;;;4145051;28;20811;-66
2022/11/22 00:31:59;;;;;;;22.90;12.00;;;2.00;99.90;;;;;;4144715;28;20315;-65
2022/11/22 00:34:00;;;;;;;24.67;14.10;;;2.00;99.90;;;;;;4145893;28;20321;-66
2022/11/22 00:36:01;;;;;;;30.73;16.60;;;2.10;99.90;;;;;;4143535;28;20321;-66
2022/11/22 00:38:02;;;;;;;28.83;15.43;;;2.10;99.90;;;;;;4145877;28;20325;-65
2022/11/22 00:40:05;;;;;;;25.43;14.70;;;2.20;99.90;;;;;;4144485;28;20325;-65
2022/11/22 00:42:06;;;;;;;25.53;14.23;;;2.20;99.90;;;;;;4144890;28;20310;-65
2022/11/22 00:44:07;;;;;;;31.10;14.90;;;2.20;99.90;;;;;;4144631;28;21170;-66
2022/11/22 00:46:09;;;;;;;25.70;14.00;;;2.20;99.90;;;;;;4145215;28;20283;-71
2022/11/22 00:48:10;;;;;;;29.87;14.53;;;2.20;99.90;;;;;;4142847;28;20326;-65
2022/11/22 00:50:11;;;;;;;26.17;14.47;;;2.20;99.90;;;;;;4144444;28;20418;-67
2022/11/22 00:52:12;;;;;;;28.33;14.80;;;2.20;99.90;;;;;;4144324;28;20298;-66
2022/11/22 00:54:13;;;;;;;24.93;14.47;;;2.30;99.90;;;;;;4144377;28;20275;-66
2022/11/22 00:56:14;;;;;;;26.77;15.00;;;2.30;99.90;;;;;;4144490;28;20317;-65
2022/11/22 00:58:16;;;;;;;27.80;15.53;;;2.30;99.90;;;;;;4144213;28;20275;-67
2022/11/22 01:00:17;;;;;;;26.10;15.73;;;2.30;99.90;;;;;;4145047;28;20643;-66
2022/11/22 01:02:18;;;;;;;28.03;15.30;;;2.30;99.90;;;;;;4144625;28;20362;-65
2022/11/22 01:04:19;;;;;;;26.13;14.43;;;2.30;99.90;;;;;;4145130;28;20307;-66
2022/11/22 01:06:20;;;;;;;26.40;15.43;;;2.30;99.90;;;;;;4144288;28;20279;-67
2022/11/22 01:08:22;;;;;;;27.30;15.03;;;2.30;99.90;;;;;;4145068;28;20333;-66
2022/11/22 01:10:23;;;;;;;28.57;15.03;;;2.30;99.90;;;;;;4143944;28;20751;-66
2022/11/22 01:12:24;;;;;;;28.07;16.10;;;2.30;99.90;;;;;;4144024;28;20291;-66
2022/11/22 01:14:26;;;;;;;32.80;17.23;;;2.30;99.90;;;;;;4143659;28;20271;-66
2022/11/22 01:16:27;;;;;;;32.33;16.83;;;2.20;99.90;;;;;;4144148;28;20754;-67
2022/11/22 01:18:28;;;;;;;33.47;18.87;;;2.30;99.90;;;;;;4145306;28;20310;-66
2022/11/22 01:20:29;;;;;;;28.67;16.97;;;2.30;99.90;;;;;;4147800;28;20322;-65
2022/11/22 01:22:30;;;;;;;34.00;17.33;;;2.20;99.90;;;;;;4147278;28;20271;-68
2022/11/22 01:24:32;;;;;;;24.30;15.17;;;2.20;99.90;;;;;;4147855;28;20775;-77
2022/11/22 01:26:34;;;;;;;35.20;17.60;;;2.20;99.90;;;;;;4147710;28;20317;-65
2022/11/22 01:28:36;;;;;;;29.57;16.90;;;2.20;99.90;;;;;;4146835;28;20322;-65
2022/11/22 01:30:39;;;;;;;30.27;16.80;;;2.20;99.90;;;;;;4148158;28;20291;-65
2022/11/22 01:32:40;;;;;;;27.93;15.90;;;2.30;99.90;;;;;;4146698;28;20287;-66
2022/11/22 01:34:41;;;;;;;28.87;16.13;;;2.30;99.90;;;;;;4148022;28;20325;-70
2022/11/22 01:36:43;;;;;;;27.80;16.60;;;2.30;99.90;;;;;;4146745;28;20339;-66
2022/11/22 01:38:44;;;;;;;28.03;15.57;;;2.30;99.90;;;;;;4148600;28;20267;-66
2022/11/22 01:40:45;;;;;;;25.53;14.67;;;2.30;99.90;;;;;;4146562;28;20260;-65
2022/11/22 01:42:46;;;;;;;24.87;14.67;;;2.40;99.90;;;;;;4147586;28;20690;-65
2022/11/22 01:44:48;;;;;;;26.60;15.67;;;2.40;99.90;;;;;;4146688;28;21160;-76
2022/11/22 01:46:56;;;;;;;24.97;14.30;;;2.40;99.90;;;;;;4147325;28;20303;-65
2022/11/22 01:49:15;;;;;;;24.63;14.43;;;2.40;99.90;;;;;;4145973;28;20263;-66
2022/11/22 01:51:23;;;;;;;25.13;14.10;;;2.40;99.90;;;;;;4146500;28;20353;-66
2022/11/22 01:53:29;;;;;;;24.37;13.43;;;2.40;99.90;;;;;;4146831;28;20279;-65
2022/11/22 01:55:30;;;;;;;24.23;13.23;;;2.40;99.90;;;;;;4130639;28;20308;-65
2022/11/22 01:57:36;;;;;;;29.17;15.60;;;2.40;99.90;;;;;;4147001;28;20317;-68
2022/11/22 01:59:43;;;;;;;28.00;16.33;;;2.40;99.90;;;;;;4147041;28;20275;-66
2022/11/22 02:01:44;;;;;;;30.97;17.03;;;2.50;99.90;;;;;;4146557;28;20616;-65
2022/11/22 02:03:49;;;;;;;31.07;17.37;;;2.50;99.90;;;;;;4147999;28;20818;-64
2022/11/22 02:05:51;;;;;;;27.23;16.10;;;2.50;99.90;;;;;;4146292;28;20333;-64
2022/11/22 02:07:58;;;;;;;28.33;15.90;;;2.60;99.90;;;;;;4146525;28;20329;-64
2022/11/22 02:21:57;;;;;;;34.57;20.13;;;2.30;99.90;;;;;;4147718;28;20393;-70
2022/11/22 02:24:20;;;;;;;36.23;19.70;;;2.30;99.90;;;;;;4146882;28;20295;-66
2022/11/22 02:26:26;;;;;;;37.50;20.70;;;2.20;99.90;;;;;;4147295;28;20333;-65
2022/11/22 02:28:30;;;;;;;38.80;21.47;;;2.30;99.90;;;;;;4146369;28;20345;-65
2022/11/22 02:30:31;;;;;;;42.07;22.47;;;2.30;99.90;;;;;;4146003;28;20263;-67
2022/11/22 02:32:32;;;;;;;38.83;20.40;;;2.30;99.90;;;;;;4145842;28;20326;-65
2022/11/22 02:34:50;;;;;;;38.63;19.60;;;2.30;99.90;;;;;;4146887;28;20279;-66
2022/11/22 02:36:53;;;;;;;39.03;21.63;;;2.30;99.90;;;;;;4146426;28;20324;-65
2022/11/22 02:38:55;;;;;;;38.80;21.20;;;2.30;99.90;;;;;;4147270;28;20717;-66
2022/11/22 02:40:58;;;;;;;41.40;23.43;;;2.30;99.90;;;;;;4145703;28;20276;-65
2022/11/22 02:43:06;;;;;;;45.80;22.70;;;2.40;99.90;;;;;;4147333;28;20306;-66
2022/11/22 02:45:08;;;;;;;43.10;22.37;;;2.40;99.90;;;;;;4146353;28;20338;-66
2022/11/22 02:47:09;;;;;;;40.47;21.90;;;2.40;99.90;;;;;;4130957;28;20287;-65
2022/11/22 02:49:10;;;;;;;40.37;22.00;;;2.40;99.90;;;;;;4130446;28;20315;-69
2022/11/22 02:51:16;;;;;;;40.50;22.77;;;2.40;99.90;;;;;;4129839;28;20331;-67
2022/11/22 02:53:17;;;;;;;40.83;21.13;;;2.40;99.90;;;;;;4129958;28;20276;-65
2022/11/22 02:55:18;;;;;;;33.80;19.30;;;2.50;99.90;;;;;;4128683;28;20288;-65
2022/11/22 02:57:19;;;;;;;45.43;20.97;;;2.50;99.90;;;;;;4130832;28;20322;-67
2022/11/22 02:59:20;;;;;;;36.77;20.57;;;2.50;99.90;;;;;;4129933;28;20272;-65
2022/11/22 03:01:21;;;;;;;33.43;19.40;;;2.50;99.90;;;;;;4130505;28;20362;-65
2022/11/22 03:03:22;;;;;;;39.37;19.63;;;2.50;99.90;;;;;;4130036;28;20836;-66
2022/11/22 03:05:24;;;;;;;30.73;17.03;;;2.60;99.90;;;;;;4130588;28;20280;-69
2022/11/22 03:07:25;;;;;;;35.40;18.60;;;2.60;99.90;;;;;;4143943;28;20329;-65
2022/11/22 03:09:26;;;;;;;32.87;18.97;;;2.60;99.90;;;;;;4129624;28;20361;-65
2022/11/22 03:11:27;;;;;;;36.83;18.90;;;2.60;99.90;;;;;;4129072;28;20308;-65
2022/11/22 03:13:28;;;;;;;31.47;17.40;;;2.60;99.90;;;;;;4129959;28;20676;-65
2022/11/22 03:15:29;;;;;;;31.83;17.20;;;2.60;99.90;;;;;;4129657;28;20346;-66
2022/11/22 03:17:31;;;;;;;30.83;18.10;;;2.60;99.90;;;;;;4129466;28;20339;-73
2022/11/22 03:19:32;;;;;;;33.87;18.97;;;2.60;99.90;;;;;;4129752;28;20268;-64
2022/11/22 03:21:33;;;;;;;36.97;17.83;;;2.60;99.90;;;;;;4129996;28;20745;-65
2022/11/22 03:23:34;;;;;;;31.67;17.27;;;2.60;99.90;;;;;;4129810;28;20295;-64
2022/11/22 03:25:37;;;;;;;33.67;17.43;;;2.60;99.90;;;;;;4129743;28;20748;-65
2022/11/22 03:27:38;;;;;;;27.77;15.87;;;2.60;99.90;;;;;;4129931;28;20755;-65
2022/11/22 03:29:39;;;;;;;25.20;13.97;;;2.60;99.90;;;;;;4129434;28;20276;-65
2022/11/22 03:31:40;;;;;;;18.40;10.37;;;2.60;99.90;;;;;;4129955;28;20354;-65
2022/11/22 03:33:41;;;;;;;22.30;11.17;;;2.50;99.90;;;;;;4129672;28;20311;-64
2022/11/22 03:35:42;;;;;;;21.77;12.20;;;2.40;99.90;;;;;;4129906;28;20268;-66
2022/11/22 03:37:43;;;;;;;23.50;12.87;;;2.20;99.90;;;;;;4128631;28;20272;-65
2022/11/22 03:39:44;;;;;;;23.90;13.07;;;2.10;99.90;;;;;;4129799;28;20276;-65
2022/11/22 03:41:45;;;;;;;21.77;12.90;;;2.10;99.90;;;;;;4128001;28;20284;-72
2022/11/22 03:43:47;;;;;;;23.27;13.77;;;2.00;99.90;;;;;;4130119;28;20688;-65
2022/11/22 03:45:48;;;;;;;22.00;12.23;;;1.90;99.90;;;;;;4131803;28;20330;-69
2022/11/22 03:47:49;;;;;;;29.53;16.20;;;1.90;99.90;;;;;;4145868;28;20271;-65
2022/11/22 03:49:50;;;;;;;25.67;15.30;;;1.80;99.90;;;;;;4144801;28;20824;-64
2022/11/22 03:51:51;;;;;;;25.80;14.67;;;1.80;99.90;;;;;;4144852;28;20279;-65
2022/11/22 03:53:52;;;;;;;22.77;12.80;;;1.80;99.90;;;;;;4144826;28;20322;-73
2022/11/22 03:55:54;;;;;;;22.50;12.70;;;1.80;99.90;;;;;;4144846;28;20263;-65
2022/11/22 03:57:55;;;;;;;22.13;13.20;;;1.70;99.90;;;;;;4145216;28;20620;-70
2022/11/22 03:59:56;;;;;;;22.87;13.47;;;1.70;99.90;;;;;;4144641;28;20310;-65
2022/11/22 04:01:57;;;;;;;22.70;12.77;;;1.70;99.90;;;;;;4146278;28;20275;-66
2022/11/22 04:03:58;;;;;;;24.33;12.47;;;1.70;99.90;;;;;;4144891;28;20299;-65
2022/11/22 04:05:59;;;;;;;19.23;11.57;;;1.70;99.90;;;;;;4146091;28;20331;-66
2022/11/22 04:08:01;;;;;;;25.63;13.87;;;1.70;99.90;;;;;;4145129;28;20706;-67
2022/11/22 04:10:03;;;;;;;25.50;14.43;;;1.70;99.90;;;;;;4145475;28;20334;-71
2022/11/22 04:12:05;;;;;;;27.57;13.70;;;1.70;99.90;;;;;;4144250;28;20275;-64
2022/11/22 04:16:25;;;;;;;20.23;12.03;;;1.70;99.90;;;;;;4144503;28;20814;-69
2022/11/22 04:18:26;;;;;;;26.57;14.30;;;1.70;99.90;;;;;;4144826;28;20283;-65
2022/11/22 04:23:03;;;;;;;28.40;13.80;;;1.60;99.90;;;;;;4146254;28;20321;-65
2022/11/22 04:25:14;;;;;;;30.50;14.73;;;1.60;99.90;;;;;;4144384;28;20291;-64
2022/11/22 04:27:15;;;;;;;;;;;1.60;99.90;;;;;;4146015;28;20329;-67
2022/11/22 04:29:17;;;;;;;32.67;16.13;;;1.60;99.90;;;;;;4144890;28;21030;-74
2022/11/22 04:33:38;;;;;;;32.83;17.73;;;1.70;99.90;;;;;;4144917;28;20817;-67
2022/11/22 04:35:40;;;;;;;33.53;19.17;;;1.70;99.90;;;;;;4145306;28;20306;-64
2022/11/22 04:37:41;;;;;;;34.73;20.00;;;1.80;99.90;;;;;;4144435;28;20322;-67
2022/11/22 04:39:43;;;;;;;63.87;30.93;;;1.80;99.90;;;;;;4127791;28;20339;-66
2022/11/22 04:41:44;;;;;;;42.97;21.53;;;1.80;99.90;;;;;;4144333;28;20275;-65
2022/11/22 04:46:05;;;;;;;37.90;17.03;;;1.80;99.90;;;;;;4145158;28;20334;-65
2022/11/22 04:48:06;;;;;;;29.30;17.13;;;1.70;99.90;;;;;;4145044;28;20271;-64
2022/11/22 04:52:52;;;;;;;33.30;18.83;;;1.70;99.90;;;;;;4144744;28;20337;-66
2022/11/22 04:54:49;;;;;;;36.30;19.07;;;1.70;99.90;;;;;;4144163;28;20349;-65
2022/11/22 04:56:50;;;;;;;31.93;17.37;;;1.70;99.90;;;;;;4147696;28;20291;-66
2022/11/22 04:58:51;;;;;;;34.63;18.57;;;1.80;99.90;;;;;;4126799;28;20660;-66
2022/11/22 05:00:52;;;;;;;32.83;18.97;;;1.80;99.90;;;;;;4142943;28;20683;-65
2022/11/22 05:02:53;;;;;;;28.90;17.00;;;1.80;99.90;;;;;;4144219;28;20346;-66
2022/11/22 05:04:55;;;;;;;30.30;14.73;;;1.80;99.90;;;;;;4144318;28;20334;-65
2022/11/22 05:06:56;;;;;;;24.33;14.00;;;1.80;99.90;;;;;;4145130;28;20318;-65
2022/11/22 05:08:57;;;;;;;27.30;14.87;;;1.80;99.90;;;;;;4142675;28;20267;-65
2022/11/22 05:10:58;;;;;;;25.63;13.37;;;1.80;99.90;;;;;;4145057;28;20778;-66
2022/11/22 05:12:59;;;;;;;25.50;13.33;;;1.80;99.90;;;;;;4144159;28;20802;-64
2022/11/22 05:15:00;;;;;;;33.00;17.13;;;1.80;99.90;;;;;;4144268;28;20263;-65
2022/11/22 05:17:02;;;;;;;38.57;19.23;;;1.80;99.90;;;;;;4133448;28;20637;-66
2022/11/22 05:19:03;;;;;;;34.07;19.67;;;1.70;99.90;;;;;;4128966;28;20374;-68
2022/11/22 05:21:13;;;;;;;33.47;19.80;;;1.70;99.90;;;;;;4127247;28;20284;-66
2022/11/22 05:25:34;;;;;;;29.52;16.67;;;1.60;99.90;;;;;;4127677;28;20836;-66
2022/11/22 05:27:35;;;;;;;25.60;15.37;;;1.60;99.90;;;;;;4144313;28;20034;-76
2022/11/22 05:29:36;;;;;;;28.37;15.13;;;1.60;99.90;;;;;;4142931;28;20263;-73
2022/11/22 05:31:39;;;;;;;31.03;15.40;;;1.50;99.90;;;;;;4143938;28;20755;-66
2022/11/22 05:33:42;;;;;;;25.93;14.40;;;1.50;99.90;;;;;;4144630;28;20248;-66
2022/11/22 05:35:43;;;;;;;29.80;17.33;;;1.40;99.90;;;;;;4143121;28;20632;-73
2022/11/22 05:37:44;;;;;;;31.37;16.77;;;1.40;99.90;;;;;;4126035;28;20292;-74
2022/11/22 05:39:45;;;;;;;29.83;17.33;;;1.40;99.90;;;;;;4143723;28;20275;-65
2022/11/22 05:41:54;;;;;;;37.17;19.27;;;1.40;99.90;;;;;;4143644;28;20326;-65
2022/11/22 05:43:56;;;;;;;38.17;18.70;;;1.40;99.90;;;;;;4143023;28;20314;-64
2022/11/22 05:46:08;;;;;;;40.27;19.00;;;1.40;99.90;;;;;;4144063;28;20361;-63
2022/11/22 05:48:09;;;;;;;34.93;20.67;;;1.40;99.90;;;;;;4143262;28;20283;-69
2022/11/22 05:50:11;;;;;;;36.57;20.50;;;1.60;99.90;;;;;;4144850;28;20275;-65
2022/11/22 05:52:12;;;;;;;45.63;23.27;;;1.70;99.90;;;;;;4143336;28;20759;-66
2022/11/22 05:54:13;;;;;;;36.30;21.33;;;1.90;99.90;;;;;;4143801;28;20337;-72
2022/11/22 05:56:20;;;;;;;35.87;21.13;;;2.10;99.90;;;;;;4143700;28;20337;-65
2022/11/22 05:58:21;;;;;;;39.23;20.17;;;2.10;99.90;;;;;;4144730;28;20268;-64
2022/11/22 06:00:22;;;;;;;37.57;19.97;;;2.20;99.90;;;;;;4143633;28;20271;-67
2022/11/22 06:02:23;;;;;;;35.80;19.03;;;2.20;99.90;;;;;;4144698;28;20317;-75
2022/11/22 06:04:24;;;;;;;39.23;20.60;;;2.30;99.90;;;;;;4144503;28;20806;-65
2022/11/22 06:06:25;;;;;;;39.33;21.67;;;2.40;99.90;;;;;;4147540;28;20318;-76
2022/11/22 06:08:30;;;;;;;35.07;21.60;;;2.40;99.90;;;;;;4146478;28;20260;-75
2022/11/22 06:10:35;;;;;;;47.33;24.53;;;2.60;99.90;;;;;;4147205;28;20255;-66
2022/11/22 06:12:37;;;;;;;37.20;23.27;;;2.60;99.90;;;;;;4145411;28;20601;-70
2022/11/22 06:14:38;;;;;;;44.53;24.73;;;2.60;99.90;;;;;;4141897;28;20275;-65
2022/11/22 06:16:39;;;;;;;56.93;30.33;;;2.60;99.90;;;;;;4145633;28;21061;-65
2022/11/22 06:18:40;;;;;;;45.70;24.33;;;2.50;99.90;;;;;;4146295;28;20264;-65
2022/11/22 06:20:41;;;;;;;43.43;23.60;;;2.60;99.90;;;;;;4146910;28;20317;-65
2022/11/22 06:22:42;;;;;;;44.07;25.33;;;3.00;99.90;;;;;;4145505;28;20337;-65
2022/11/22 06:24:43;;;;;;;45.80;24.83;;;3.30;99.90;;;;;;4145533;28;20299;-65
2022/11/22 06:26:45;;;;;;;35.90;21.33;;;3.70;99.90;;;;;;4144006;28;20275;-65
2022/11/22 06:28:47;;;;;;;35.70;20.57;;;4.00;99.90;;;;;;4147561;28;20298;-66
2022/11/22 06:30:49;;;;;;;29.83;17.90;;;4.20;99.90;;;;;;4144568;28;20276;-67
2022/11/22 06:32:50;;;;;;;30.90;18.60;;;4.50;99.90;;;;;;4147322;28;20585;-67
2022/11/22 06:34:51;;;;;;;28.97;16.63;;;4.70;99.90;;;;;;4146015;28;20073;-66
2022/11/22 06:36:52;;;;;;;29.23;16.70;;;5.00;99.90;;;;;;4146666;28;20094;-70
2022/11/22 06:38:53;;;;;;;32.27;16.53;;;5.20;99.90;;;;;;4145737;28;20026;-72
2022/11/22 06:41:09;;;;;;;27.63;15.87;;;5.50;99.90;;;;;;4146656;28;20148;-66
2022/11/22 06:43:10;;;;;;;25.00;14.37;;;5.80;99.90;;;;;;4144778;28;20133;-65
2022/11/22 06:45:11;;;;;;;29.77;14.60;;;5.90;99.90;;;;;;4146098;28;20037;-66
2022/11/22 06:47:12;;;;;;;24.77;14.80;;;6.00;99.90;;;;;;4127918;28;20088;-66
2022/11/22 06:49:13;;;;;;;26.73;14.73;;;5.90;99.90;;;;;;4130443;28;20038;-65
2022/11/22 06:51:16;;;;;;;25.23;14.77;;;5.80;99.90;;;;;;4130071;28;20038;-67
2022/11/22 06:53:17;;;;;;;23.77;15.70;;;6.00;99.90;;;;;;4129676;28;20512;-71
2022/11/22 06:55:18;;;;;;;25.67;15.90;;;6.30;99.90;;;;;;4129473;28;20039;-65
2022/11/22 06:57:21;;;;;;;23.60;15.67;;;6.10;99.90;;;;;;4129095;28;20438;-65
2022/11/22 06:59:22;;;;;;;27.57;15.30;;;5.80;99.90;;;;;;4130098;28;20030;-65
2022/11/22 07:01:25;;;;;;;26.83;16.20;;;5.60;99.90;;;;;;4129167;28;20189;-65
2022/11/22 07:03:27;;;;;;;25.33;15.70;;;5.40;99.90;;;;;;4130002;28;20089;-66
2022/11/22 07:05:28;;;;;;;30.03;18.70;;;5.30;99.90;;;;;;4127896;28;20100;-69
2022/11/22 07:07:29;;;;;;;38.83;19.63;;;5.10;99.90;;;;;;4130476;28;20050;-65
2022/11/22 07:09:30;;;;;;;41.57;23.07;;;4.70;99.90;;;;;;4128360;28;20038;-65
2022/11/22 07:11:32;;;;;;;35.03;22.10;;;4.50;99.90;;;;;;4129822;28;20042;-66
2022/11/22 07:13:33;;;;;;;40.50;22.43;;;4.60;99.90;;;;;;4128617;28;20030;-66
2022/11/22 07:15:34;;;;;;;41.70;24.00;;;4.70;99.90;;;;;;4129341;28;20050;-66
2022/11/22 07:17:35;;;;;;;34.87;22.10;;;4.80;99.90;;;;;;4128877;28;20052;-65
2022/11/22 07:19:38;;;;;;;37.70;23.70;;;4.90;99.90;;;;;;4130086;28;20442;-67
2022/11/22 07:21:39;;;;;;;40.17;23.73;;;5.10;99.90;;;;;;4129866;28;20026;-63
2022/11/22 07:23:42;;;;;;;44.97;24.27;;;5.30;99.90;;;;;;4129531;28;20038;-67
2022/11/22 07:25:47;;;;;;;34.17;21.20;;;5.60;99.90;;;;;;4129619;28;20113;-69
2022/11/22 07:27:51;;;;;;;38.37;22.57;;;5.70;99.90;;;;;;4129414;28;20030;-67
2022/11/22 07:29:52;;;;;;;36.70;22.37;;;5.60;99.90;;;;;;4130126;28;20034;-65
2022/11/22 07:31:53;;;;;;;44.20;25.20;;;5.60;99.90;;;;;;4129248;28;20434;-65
2022/11/22 07:33:56;;;;;;;40.10;23.77;;;5.80;99.90;;;;;;4130460;28;20030;-66
2022/11/22 07:36:09;;;;;;;47.30;26.23;;;5.70;99.90;;;;;;4129371;28;20034;-66
2022/11/22 07:38:10;;;;;;;39.97;26.00;;;5.60;99.90;;;;;;4129548;28;20112;-66
2022/11/22 07:40:12;;;;;;;45.63;26.27;;;5.60;99.90;;;;;;4128838;28;20088;-65
2022/11/22 07:42:13;;;;;;;40.17;24.13;;;6.00;99.90;;;;;;4129877;28;20457;-66
2022/11/22 07:44:14;;;;;;;37.90;23.93;;;6.30;99.90;;;;;;4143227;28;20104;-64
2022/11/22 07:46:30;;;;;;;38.73;24.80;;;6.90;99.90;;;;;;4136661;28;20449;-65
2022/11/22 07:48:31;;;;;;;45.90;26.90;;;7.40;99.90;;;;;;4144048;28;20093;-66
2022/11/22 07:50:33;;;;;;;44.33;24.77;;;7.50;99.90;;;;;;4145466;28;20041;-65
2022/11/22 07:52:34;;;;;;;39.33;24.53;;;7.40;99.90;;;;;;4144106;28;20057;-68
2022/11/22 07:54:35;;;;;;;42.43;23.17;;;7.20;99.90;;;;;;4146331;28;20641;-66
2022/11/22 07:56:37;;;;;;;45.57;22.90;;;7.00;99.90;;;;;;4143875;28;20084;-68
2022/11/22 07:58:38;;;;;;;40.27;20.83;;;7.10;99.90;;;;;;4145907;28;20038;-67
2022/11/22 08:00:39;;;;;;;50.57;22.77;;;7.40;99.90;;;;;;4145200;28;20034;-65
2022/11/22 08:02:40;;;;;;;54.43;21.53;;;7.60;99.90;;;;;;4145570;28;20033;-65
2022/11/22 08:04:41;;;;;;;51.73;19.53;;;7.90;99.90;;;;;;4145260;28;20095;-65
2022/11/22 08:06:42;;;;;;;47.57;18.80;;;8.20;99.90;;;;;;4143957;28;20030;-66
2022/11/22 08:08:44;;;;;;;49.83;17.97;;;8.10;99.90;;;;;;4127967;28;20039;-66
2022/11/22 08:10:45;;;;;;;47.13;18.37;;;7.60;99.90;;;;;;4144537;28;20018;-65
2022/11/22 08:12:46;;;;;;;45.00;16.27;;;7.10;99.90;;;;;;4146034;28;20026;-67
2022/11/22 08:14:47;;;;;;;47.63;17.10;;;6.80;99.90;;;;;;4142625;28;20552;-66
2022/11/22 08:16:49;;;;;;;52.60;18.87;;;6.60;99.90;;;;;;4145365;28;20030;-67
2022/11/22 08:18:50;;;;;;;45.30;18.13;;;6.60;99.90;;;;;;4144584;28;20037;-66
2022/11/22 08:21:00;;;;;;;38.10;16.27;;;6.60;99.90;;;;;;4145279;28;20030;-66
2022/11/22 08:23:01;;;;;;;31.87;15.00;;;6.40;99.90;;;;;;4143742;28;20042;-65
2022/11/22 08:25:03;;;;;;;46.67;17.40;;;6.40;99.90;;;;;;4145111;28;20441;-66
2022/11/22 08:27:04;;;;;;;34.33;15.73;;;6.50;99.90;;;;;;4143930;28;20077;-65
2022/11/22 08:29:07;;;;;;;41.90;15.67;;;6.80;99.90;;;;;;4143924;28;20042;-66
2022/11/22 08:31:19;;;;;;;41.47;15.90;;;6.80;99.90;;;;;;4143643;28;20092;-65
2022/11/22 08:33:20;;;;;;;36.20;16.40;;;7.00;99.90;;;;;;4145007;28;20026;-66
2022/11/22 08:35:21;;;;;;;41.57;18.33;;;7.20;99.90;;;;;;4144162;28;20072;-65
2022/11/22 08:37:22;;;;;;;40.97;20.10;;;7.40;99.90;;;;;;4144563;28;20042;-65
2022/11/22 08:39:23;;;;;;;36.03;19.37;;;7.40;99.90;;;;;;4127143;28;20042;-66
2022/11/22 08:41:25;;;;;;;38.17;17.77;;;7.30;99.90;;;;;;4144505;28;20466;-68
2022/11/22 08:43:26;;;;;;;34.33;16.70;;;7.50;99.90;;;;;;4145380;28;20064;-65
2022/11/22 08:45:27;;;;;;;35.30;17.03;;;7.60;99.90;;;;;;4144080;28;20100;-67
2022/11/22 08:47:28;;;;;;;33.17;15.30;;;7.70;99.90;;;;;;4145497;28;20088;-66
2022/11/22 08:49:29;;;;;;;36.43;15.13;;;7.70;99.90;;;;;;4144436;28;20030;-66
2022/11/22 08:51:31;;;;;;;28.07;14.50;;;7.50;99.90;;;;;;4145178;28;20025;-70
2022/11/22 08:53:34;;;;;;;22.60;11.60;;;7.50;99.90;;;;;;4144234;28;20103;-66
2022/11/22 08:55:35;;;;;;;28.43;10.53;;;7.20;99.90;;;;;;4145226;28;20536;-66
2022/11/22 08:57:37;;;;;;;16.03;8.43;;;6.90;99.90;;;;;;4126403;28;20642;-66
2022/11/22 08:59:38;;;;;;;14.13;8.20;;;6.60;99.90;;;;;;4144585;28;20046;-71
2022/11/22 09:01:39;;;;;;;16.50;7.63;;;6.50;99.90;;;;;;4143088;28;20155;-65
2022/11/22 09:03:41;;;;;;;14.80;7.03;;;6.30;99.90;;;;;;4144433;28;20425;-66
2022/11/22 09:05:43;;;;;;;12.90;6.80;;;6.20;99.90;;;;;;4143870;28;20565;-65
2022/11/22 09:07:44;;;;;;;17.60;7.63;;;6.30;99.90;;;;;;4143049;28;20029;-66
2022/11/22 09:09:45;;;;;;;17.63;7.33;;;6.40;99.90;;;;;;4144086;28;20092;-65
2022/11/22 09:11:46;;;;;;;13.87;7.37;;;6.40;99.90;;;;;;4144001;28;20046;-67
2022/11/22 09:13:48;;;;;;;17.17;8.30;;;6.40;99.90;;;;;;4144377;28;20084;-66
2022/11/22 09:15:49;;;;;;;12.47;8.20;;;6.30;99.90;;;;;;4143792;28;20034;-67
2022/11/22 09:17:50;;;;;;;12.93;7.43;;;6.40;99.90;;;;;;4144991;28;20095;-70
2022/11/22 09:19:51;;;;;;;14.60;7.47;;;6.40;99.90;;;;;;4144107;28;20088;-66
2022/11/22 09:21:52;;;;;;;10.63;6.57;;;6.20;99.90;;;;;;4144346;28;20076;-67
2022/11/22 09:23:53;;;;;;;12.10;6.40;;;6.20;99.90;;;;;;4143291;28;20026;-66
2022/11/22 09:26:05;;;;;;;9.63;6.20;;;6.10;99.90;;;;;;4144756;28;20045;-68
2022/11/22 09:28:07;;;;;;;8.60;5.93;;;6.00;99.90;;;;;;4143465;28;20483;-65
2022/11/22 09:30:08;;;;;;;16.43;7.53;;;6.00;99.90;;;;;;4144968;28;20030;-65
2022/11/22 09:32:09;;;;;;;12.87;6.97;;;6.00;99.90;;;;;;4143632;28;20080;-67
2022/11/22 09:34:11;;;;;;;8.70;6.17;;;6.10;99.90;;;;;;4127273;28;20038;-76
2022/11/22 09:36:17;;;;;;;8.17;5.53;;;6.20;99.90;;;;;;4144466;28;20034;-66
2022/11/22 09:38:18;;;;;;;12.10;6.43;;;6.20;99.90;;;;;;4144783;28;20099;-67
2022/11/22 09:40:20;;;;;;;9.57;5.77;;;6.20;99.90;;;;;;4146544;28;20394;-70
2022/11/22 09:42:36;;;;;;;9.60;5.43;;;6.30;99.90;;;;;;4147193;28;20455;-67
2022/11/22 09:44:49;;;;;;;9.93;6.17;;;6.30;99.90;;;;;;4146664;28;20510;-66
2022/11/22 09:47:20;;;;;;;14.17;5.87;;;6.40;99.90;;;;;;4147593;28;20054;-79
2022/11/22 09:49:21;;;;;;;9.37;6.00;;;6.60;99.90;;;;;;4146583;28;20536;-77
2022/11/22 09:51:32;;;;;;;8.83;5.33;;;6.60;99.90;;;;;;4147826;28;20073;-66
2022/11/22 09:53:47;;;;;;;8.80;5.55;;;6.60;99.90;;;;;;4146714;28;20072;-65
2022/11/22 09:55:52;;;;;;;10.63;6.10;;;6.70;99.90;;;;;;4147964;28;20041;-65
2022/11/22 09:58:15;;;;;;;11.73;5.80;;;6.70;99.90;;;;;;4146744;28;20034;-74
2022/11/22 10:00:20;;;;;;;10.60;6.57;;;6.70;99.90;;;;;;4147974;28;20382;-65
2022/11/22 10:02:28;;;;;;;12.23;7.30;;;6.60;99.90;;;;;;4145355;28;20038;-68
2022/11/22 10:04:53;;;;;;;13.87;6.07;;;6.70;99.90;;;;;;4147585;28;20429;-66
2022/11/22 10:07:01;;;;;;;9.40;5.50;;;6.70;99.90;;;;;;4146545;28;20107;-64
2022/11/22 10:09:18;;;;;;;10.23;5.50;;;6.70;99.90;;;;;;4147822;28;20030;-65
2022/11/22 10:11:34;;;;;;;10.97;6.63;;;6.70;99.90;;;;;;4146285;28;20029;-65
2022/11/22 10:13:41;;;;;;;9.83;6.33;;;6.80;99.90;;;;;;4147553;28;20470;-65
2022/11/22 10:15:58;;;;;;;8.80;5.27;;;6.80;99.90;;;;;;4146598;28;20033;-64
2022/11/22 10:18:13;;;;;;;15.17;6.33;;;6.70;99.90;;;;;;4147394;28;20092;-68
2022/11/22 10:20:26;;;;;;;8.97;5.93;;;6.70;99.90;;;;;;4146223;28;20034;-67
2022/11/22 10:22:29;;;;;;;10.37;5.77;;;6.60;99.90;;;;;;4147530;28;20418;-72
2022/11/22 10:24:30;;;;;;;12.00;6.30;;;6.70;99.90;;;;;;4146398;28;20106;-65
2022/11/22 10:26:37;;;;;;;7.87;4.30;;;6.60;99.90;;;;;;4147362;28;20100;-66
2022/11/22 10:29:18;;;;;;;9.80;5.07;;;6.80;99.90;;;;;;4146249;28;20042;-66
2022/11/22 10:31:32;;;;;;;11.23;3.80;;;7.00;99.90;;;;;;4117424;28;20510;-65
2022/11/22 10:33:39;;;;;;;9.30;4.27;;;7.20;99.90;;;;;;4145409;28;20425;-67
2022/11/22 10:35:59;;;;;;;6.37;4.07;;;7.20;99.90;;;;;;4147260;28;20172;-72
2022/11/22 10:38:37;;;;;;;8.37;4.77;;;7.20;99.90;;;;;;4145785;28;20120;-76
2022/11/22 10:41:09;;;;;;;6.80;3.80;;;7.20;99.90;;;;;;4146292;28;20100;-71
2022/11/22 10:43:25;;;;;;;8.33;4.70;;;7.10;99.90;;;;;;4146769;28;20030;-67
2022/11/22 10:45:48;;;;;;;4.63;3.27;;;7.10;99.90;;;;;;4145681;28;20474;-71
2022/11/22 10:48:14;;;;;;;5.73;3.83;;;7.10;99.90;;;;;;4147015;28;20034;-67
2022/11/22 10:50:27;;;;;;;5.73;4.33;;;7.10;99.90;;;;;;4145233;28;20083;-72
2022/11/22 10:52:47;;;;;;;9.73;4.37;;;7.10;99.90;;;;;;4146454;28;20098;-69
2022/11/22 10:54:56;;;;;;;8.13;4.55;;;7.10;99.90;;;;;;4145851;28;20041;-70
2022/11/22 10:57:07;;;;;;;6.03;4.27;;;7.20;99.90;;;;;;4146643;28;20084;-68
2022/11/22 10:59:08;;;;;;;9.03;4.00;;;7.10;99.90;;;;;;4145562;28;20643;-69
2022/11/22 11:01:34;;;;;;;7.30;4.57;;;7.10;99.90;;;;;;4146465;28;20088;-67
2022/11/22 11:03:40;;;;;;;10.57;4.20;;;7.10;99.90;;;;;;4145017;28;20042;-70
2022/11/22 11:05:57;;;;;;;7.17;4.70;;;7.20;99.90;;;;;;4146622;28;20062;-64